createdAt,value
2023-02-03T00:00:07.280Z,2.05
2023-02-03T00:05:14.727Z,1.95
2023-02-03T00:10:21.422Z,2.35
2023-02-03T00:15:25.296Z,2.65
2023-02-03T00:20:29.002Z,3.17
2023-02-03T00:25:34.153Z,2.63
2023-02-03T00:30:37.879Z,2.97
2023-02-03T00:35:41.055Z,2.90
2023-02-03T00:40:52.378Z,2.28
2023-02-03T00:45:55.579Z,2.08
2023-02-03T00:50:58.927Z,1.80
2023-02-03T00:56:03.869Z,2.10
2023-02-03T01:01:07.871Z,2.78
2023-02-03T01:06:14.223Z,3.28
2023-02-03T01:11:21.089Z,3.03
2023-02-03T01:16:27.657Z,2.72
2023-02-03T01:21:32.510Z,2.55
2023-02-03T01:26:37.477Z,3.17
2023-02-03T01:31:43.221Z,3.05
2023-02-03T01:36:46.847Z,3.55
2023-02-03T01:41:51.656Z,3.00
2023-02-03T01:46:55.309Z,3.33
2023-02-03T01:51:59.722Z,2.50
2023-02-03T01:57:11.852Z,3.30
2023-02-03T02:02:15.387Z,4.45
2023-02-03T02:07:18.776Z,2.88
2023-02-03T02:12:23.325Z,2.70
2023-02-03T02:17:50.623Z,2.33
2023-02-03T02:23:15.960Z,2.80
2023-02-03T02:28:48.706Z,3.00
2023-02-03T02:33:58.067Z,2.22
2023-02-03T02:39:11.570Z,2.28
2023-02-03T02:44:19.454Z,3.03
2023-02-03T02:49:29.846Z,2.60
2023-02-03T02:54:34.717Z,2.67
2023-02-03T02:59:38.052Z,2.53
2023-02-03T03:04:44.083Z,1.83
2023-02-03T03:09:51.962Z,2.72
2023-02-03T03:15:00.253Z,2.03
2023-02-03T03:20:09.037Z,2.25
2023-02-03T03:25:16.672Z,1.65
2023-02-03T03:30:26.077Z,2.30
2023-02-03T03:35:37.418Z,1.42
2023-02-03T03:40:46.258Z,2.13
2023-02-03T03:45:55.996Z,1.45
2023-02-03T03:51:04.420Z,1.92
2023-02-03T03:56:14.128Z,1.85
2023-02-03T04:01:18.142Z,1.90
2023-02-03T04:06:23.290Z,1.83
2023-02-03T04:11:44.733Z,2.03
2023-02-03T04:16:47.861Z,1.88
2023-02-03T04:21:52.616Z,3.13
2023-02-03T04:26:56.448Z,2.42
2023-02-03T04:31:59.598Z,3.22
2023-02-03T04:37:04.101Z,3.97
2023-02-03T04:42:07.196Z,3.33
2023-02-03T04:47:10.450Z,4.18
2023-02-03T04:52:15.361Z,4.75
2023-02-03T04:57:18.439Z,5.07
2023-02-03T05:02:22.183Z,5.47
2023-02-03T05:07:26.727Z,5.85
2023-02-03T05:12:29.817Z,6.87
2023-02-03T05:17:32.973Z,7.03
2023-02-03T05:22:37.622Z,7.88
2023-02-03T05:27:41.682Z,8.93
2023-02-03T05:32:45.037Z,9.10
2023-02-03T05:37:49.570Z,10.07
2023-02-03T05:42:52.661Z,9.20
2023-02-03T05:47:56.136Z,9.07
2023-02-03T05:53:01.317Z,11.30
2023-02-03T05:58:04.533Z,10.02
2023-02-03T06:03:09.952Z,11.20
2023-02-03T06:08:15.855Z,11.20
2023-02-03T06:13:19.582Z,11.07
2023-02-03T06:18:22.857Z,9.70
2023-02-03T06:23:27.524Z,9.80
2023-02-03T06:28:33.618Z,11.00
2023-02-03T06:33:36.816Z,11.52
2023-02-03T06:39:20.961Z,12.32
2023-02-03T06:44:34.888Z,11.48
2023-02-03T06:49:40.969Z,10.93
2023-02-03T07:01:00.808Z,10.35
2023-02-03T07:06:06.006Z,10.15
2023-02-03T07:11:10.491Z,10.45
2023-02-03T07:16:15.714Z,10.85
2023-02-03T07:21:19.784Z,10.43
2023-02-03T07:26:28.869Z,9.93
2023-02-03T07:31:37.552Z,11.63
2023-02-03T07:36:44.390Z,9.63
2023-02-03T07:41:48.290Z,10.10
2023-02-03T07:46:55.456Z,11.88
2023-02-03T07:52:04.193Z,8.52
2023-02-03T07:57:07.934Z,8.60
2023-02-03T08:02:12.596Z,9.07
2023-02-03T08:07:16.175Z,7.50
2023-02-03T08:12:19.620Z,8.48
2023-02-03T08:17:25.982Z,8.55
2023-02-03T08:22:30.723Z,7.03
2023-02-03T08:27:34.227Z,7.03
2023-02-03T08:32:39.802Z,6.45
2023-02-03T08:37:43.611Z,7.38
2023-02-03T08:42:47.031Z,6.35
2023-02-03T08:47:51.678Z,7.03
2023-02-03T08:52:55.931Z,8.63
2023-02-03T08:57:59.868Z,6.13
2023-02-03T09:03:05.441Z,5.28
2023-02-03T09:13:15.816Z,5.32
2023-02-03T09:18:21.476Z,5.53
2023-02-03T09:23:25.255Z,5.05
2023-02-03T09:28:29.176Z,3.83
2023-02-03T09:33:34.301Z,4.00
2023-02-03T09:38:37.997Z,4.70
2023-02-03T09:43:46.791Z,4.63
2023-02-03T09:48:56.224Z,4.18
2023-02-03T09:54:05.122Z,4.40
2023-02-03T09:59:10.390Z,4.15
2023-02-03T10:09:45.119Z,3.42
2023-02-03T10:15:02.944Z,3.85
2023-02-03T10:20:23.374Z,4.20
2023-02-03T10:25:34.091Z,5.55
2023-02-03T10:30:45.920Z,3.35
2023-02-03T10:35:53.152Z,1.60
2023-02-03T10:40:57.043Z,2.35
2023-02-03T10:46:01.131Z,1.48
2023-02-03T10:51:12.490Z,1.27
2023-02-03T10:56:21.204Z,2.20
2023-02-03T11:01:27.355Z,2.28
2023-02-03T11:06:33.655Z,4.60
2023-02-03T11:11:41.671Z,2.60
2023-02-03T11:16:47.358Z,2.72
2023-02-03T11:21:54.140Z,2.95
2023-02-03T11:27:00.301Z,2.67
2023-02-03T11:32:07.664Z,3.00
2023-02-03T11:37:28.668Z,2.88
2023-02-03T11:42:31.855Z,3.30
2023-02-03T11:47:35.275Z,2.30
2023-02-03T11:53:03.762Z,2.10
2023-02-03T11:58:38.273Z,3.53
2023-02-03T12:04:03.261Z,1.70
2023-02-03T12:14:37.041Z,2.80
2023-02-03T12:19:52.872Z,3.42
2023-02-03T12:25:05.953Z,2.13
2023-02-03T12:30:16.076Z,2.97
2023-02-03T12:35:25.411Z,2.47
2023-02-03T12:40:37.505Z,3.25
2023-02-03T12:45:46.094Z,2.83
2023-02-03T12:50:54.258Z,2.20
2023-02-03T12:56:05.374Z,0.90
2023-02-03T13:01:17.047Z,1.38
2023-02-03T13:06:26.593Z,1.80
2023-02-03T13:11:38.293Z,3.15
2023-02-03T13:16:46.141Z,2.03
2023-02-03T13:21:50.350Z,2.92
2023-02-03T13:27:17.797Z,1.35
2023-02-03T13:32:38.228Z,2.28
2023-02-03T13:37:59.516Z,1.38
2023-02-03T13:43:10.271Z,1.70
2023-02-03T13:48:18.432Z,2.13
2023-02-03T13:53:26.113Z,2.60
2023-02-03T13:58:33.935Z,2.13
2023-02-03T14:03:47.172Z,2.70
2023-02-03T14:08:52.570Z,4.80
2023-02-03T14:14:42.374Z,4.28
2023-02-03T14:19:55.465Z,4.20
2023-02-03T14:25:06.888Z,3.40
2023-02-03T14:30:15.005Z,5.47
2023-02-03T14:35:20.996Z,4.07
2023-02-03T14:40:35.342Z,6.57
2023-02-03T14:46:08.363Z,3.40
2023-02-03T14:51:21.194Z,6.07
2023-02-03T14:56:58.279Z,3.47
2023-02-03T15:02:14.944Z,3.25
2023-02-03T15:07:44.316Z,3.55
2023-02-03T15:12:49.560Z,3.70
2023-02-03T15:17:55.957Z,3.42
2023-02-03T15:22:59.462Z,2.97
2023-02-03T15:28:13.998Z,2.55
2023-02-03T15:33:21.831Z,2.80
2023-02-03T15:38:29.066Z,3.38
2023-02-03T15:43:38.264Z,2.72
2023-02-03T15:48:49.127Z,2.78
2023-02-03T15:53:57.843Z,1.90
2023-02-03T15:59:01.171Z,2.70
2023-02-03T16:04:11.392Z,4.25
2023-02-03T16:09:31.062Z,2.90
2023-02-03T16:14:36.289Z,2.90
2023-02-03T16:19:43.957Z,2.63
2023-02-03T16:24:47.392Z,2.95
2023-02-03T16:30:09.843Z,3.08
2023-02-03T16:35:33.712Z,3.38
2023-02-03T16:40:57.500Z,2.53
2023-02-03T16:46:19.793Z,3.42
2023-02-03T16:51:24.954Z,3.22
2023-02-03T16:56:28.267Z,2.78
2023-02-03T17:01:31.475Z,3.83
2023-02-03T17:06:39.073Z,3.20
2023-02-03T17:11:42.366Z,4.43
2023-02-03T17:16:45.749Z,4.05
2023-02-03T17:21:51.561Z,3.03
2023-02-03T17:26:56.868Z,3.72
2023-02-03T17:32:01.364Z,3.42
2023-02-03T17:37:06.069Z,3.05
2023-02-03T17:58:06.669Z,3.35
2023-02-03T18:03:10.098Z,4.28
2023-02-03T18:08:16.640Z,2.80
2023-02-03T18:13:26.148Z,2.97
2023-02-03T18:18:29.601Z,3.13
2023-02-03T18:23:34.298Z,4.07
2023-02-03T18:28:38.887Z,2.53
2023-02-03T18:33:43.978Z,2.97
2023-02-03T18:38:49.150Z,4.97
2023-02-03T18:43:52.606Z,4.47
2023-02-03T18:48:56.394Z,3.15
2023-02-03T18:54:01.986Z,2.13
2023-02-03T18:59:07.357Z,2.50
2023-02-03T19:09:18.088Z,1.50
2023-02-03T19:14:21.891Z,1.85
2023-02-03T19:19:25.825Z,2.10
2023-02-03T19:24:30.469Z,1.75
2023-02-03T19:29:34.168Z,2.63
2023-02-03T19:34:37.409Z,2.22
2023-02-03T19:39:42.340Z,3.05
2023-02-03T19:44:45.612Z,1.90
2023-02-03T19:49:48.884Z,1.77
2023-02-03T19:54:55.450Z,2.00
2023-02-03T19:59:58.823Z,3.63
2023-02-03T20:05:02.096Z,1.58
2023-02-03T20:10:07.945Z,1.98
2023-02-03T20:15:11.458Z,1.65
2023-02-03T20:20:16.254Z,1.33
2023-02-03T20:25:21.043Z,1.27
2023-02-03T20:30:24.473Z,2.00
2023-02-03T20:35:28.022Z,1.42
2023-02-03T20:40:33.527Z,0.93
2023-02-03T20:45:38.295Z,1.42
2023-02-03T20:50:47.529Z,1.27
2023-02-03T20:55:57.807Z,2.65
2023-02-03T21:01:01.265Z,1.35
2023-02-03T21:06:13.122Z,1.92
2023-02-03T21:11:20.471Z,0.93
2023-02-03T21:16:27.695Z,1.17
2023-02-03T21:21:36.001Z,1.40
2023-02-03T21:26:41.526Z,1.38
2023-02-03T21:31:45.680Z,1.25
2023-02-03T21:36:49.778Z,1.03
2023-02-03T21:41:55.558Z,1.38
2023-02-03T21:47:04.238Z,0.60
2023-02-03T21:52:11.315Z,1.15
2023-02-03T21:57:16.530Z,0.75
2023-02-03T22:07:40.126Z,0.80
2023-02-03T22:12:44.693Z,0.75
2023-02-03T22:17:49.768Z,1.10
2023-02-03T22:22:53.098Z,0.82
2023-02-03T22:27:57.816Z,1.00
2023-02-03T22:33:02.206Z,0.77
2023-02-03T22:38:05.528Z,1.23
2023-02-03T22:43:10.214Z,1.38
2023-02-03T22:48:13.502Z,2.33
2023-02-03T22:53:16.983Z,1.92
2023-02-03T22:58:22.190Z,1.15
2023-02-03T23:03:25.499Z,1.88
2023-02-03T23:08:28.832Z,1.40
2023-02-03T23:13:33.436Z,1.20
2023-02-03T23:18:36.593Z,0.90
2023-02-03T23:23:40.364Z,1.02
2023-02-03T23:28:46.055Z,1.37
2023-02-03T23:34:08.398Z,0.80
2023-02-03T23:39:11.864Z,1.08
2023-02-03T23:44:16.428Z,1.27
2023-02-03T23:49:20.049Z,1.60
2023-02-03T23:54:23.416Z,1.65
2023-02-03T23:59:28.310Z,1.15
